This is the latest recevied weather packets stored in our database for station/object ON5MM-5. If no packets are shown the sender has not sent any weather packets the latest 1 day(s).
| Time | Temp. | Humidity | Pressure | Rain* | Wind** | Luminosity | Snow |
|---|---|---|---|---|---|---|---|
| 1836274676 | 18.33° C | 67% | 1019.1 hPa | 0 mm | 3.58 m/s, ° | - | - |
| 1836274526 | 18.89° C | 66% | 1018.9 hPa | 0 mm | 3.13 m/s, ° | - | - |
| 1836274376 | 17.78° C | 69% | 1019.3 hPa | 0 mm | 3.58 m/s, ° | - | - |
| 1836274226 | 18.33° C | 66% | 1019 hPa | 0 mm | 3.13 m/s, ° | - | - |
| 1836274076 | 17.22° C | 70% | 1019.3 hPa | 0 mm | 3.13 m/s, ° | - | - |
| 1778031302 | 8.33° C | 92% | 1008.9 hPa | 0.51 mm | 0 m/s | - | - |
| 1778031002 | 8.33° C | 92% | 1008.9 hPa | 0.51 mm | 0 m/s | - | - |
| 1778030701 | 8.33° C | 92% | 1008.9 hPa | 0.51 mm | 0 m/s | - | - |
| 1778030403 | 8.33° C | 92% | 1008.9 hPa | 0.51 mm | 0 m/s | - | - |
| 1778030103 | 8.33° C | 92% | 1008.9 hPa | 0.51 mm | 0 m/s | - | - |
| 1778029802 | 8.33° C | 92% | 1008.9 hPa | 0.51 mm | 0 m/s | - | - |
| 1778029501 | 8.89° C | 92% | 1009 hPa | 0.51 mm | 0.45 m/s, ° | - | - |
| 1778029202 | 8.89° C | 92% | 1008.9 hPa | 0.76 mm | 0 m/s | - | - |
| 1778028902 | 8.89° C | 92% | 1009 hPa | 0.76 mm | 0 m/s | - | - |
| 1778028602 | 8.89° C | 92% | 1009 hPa | 0.76 mm | 0 m/s | - | - |
| 1778028302 | 8.89° C | 92% | 1009 hPa | 0.76 mm | 0 m/s | - | - |
| 1778028002 | 8.89° C | 92% | 1009.1 hPa | 0.76 mm | 0 m/s | - | - |
| 1778027702 | 8.89° C | 92% | 1009.2 hPa | 0.76 mm | 0 m/s | - | - |
| 1778027403 | 8.89° C | 92% | 1009.2 hPa | 1.02 mm | 0 m/s | - | - |
| 1778027102 | 8.89° C | 92% | 1009.2 hPa | 1.27 mm | 0 m/s | - | - |
| 1778026802 | 8.89° C | 92% | 1009.3 hPa | 1.02 mm | 0 m/s | - | - |
| 1778026502 | 8.89° C | 92% | 1009.3 hPa | 1.27 mm | 0 m/s | - | - |
| 1778026203 | 8.89° C | 92% | 1009.4 hPa | 1.27 mm | 0 m/s | - | - |
| 1778025902 | 8.89° C | 92% | 1009.5 hPa | 1.78 mm | 0 m/s | - | - |
| 1778025602 | 8.89° C | 92% | 1009.5 hPa | 1.52 mm | 0 m/s | - | - |
* Rain latest hour (hover to see other rain measurements)
** Current wind speed in m/s (hover to see current wind gust speed)